createdAt,value
2024-01-26T00:00:24.013Z,5.53
2024-01-26T00:02:54.131Z,4.90
2024-01-26T00:05:26.781Z,4.63
2024-01-26T00:07:56.820Z,5.15
2024-01-26T00:10:26.863Z,4.40
2024-01-26T00:12:56.881Z,4.97
2024-01-26T00:15:28.217Z,4.30
2024-01-26T00:17:58.287Z,3.97
2024-01-26T00:20:30.974Z,4.07
2024-01-26T00:23:00.971Z,3.80
2024-01-26T00:25:30.980Z,3.47
2024-01-26T00:28:01.533Z,3.03
2024-01-26T00:30:31.528Z,3.33
2024-01-26T00:33:02.264Z,2.92
2024-01-26T00:35:34.860Z,3.22
2024-01-26T00:38:04.823Z,3.00
2024-01-26T00:40:34.838Z,2.90
2024-01-26T00:43:04.844Z,2.42
2024-01-26T00:45:34.874Z,2.50
2024-01-26T00:48:04.985Z,2.45
2024-01-26T00:50:37.895Z,2.20
2024-01-26T00:53:08.042Z,1.90
2024-01-26T00:55:38.366Z,2.03
2024-01-26T00:58:08.281Z,1.83
2024-01-26T01:00:38.455Z,2.25
2024-01-26T01:03:08.855Z,1.83
2024-01-26T01:05:43.705Z,1.88
2024-01-26T01:08:13.848Z,2.17
2024-01-26T01:10:43.804Z,1.77
2024-01-26T01:13:13.852Z,1.90
2024-01-26T01:15:43.786Z,1.60
2024-01-26T01:18:13.804Z,1.83
2024-01-26T01:20:46.403Z,1.92
2024-01-26T01:23:16.957Z,2.13
2024-01-26T01:25:47.011Z,1.67
2024-01-26T01:28:17.407Z,1.55
2024-01-26T01:30:47.353Z,1.65
2024-01-26T01:33:17.383Z,1.30
2024-01-26T01:35:50.068Z,1.48
2024-01-26T01:38:20.073Z,1.35
2024-01-26T01:40:50.038Z,1.42
2024-01-26T01:43:20.954Z,1.50
2024-01-26T01:45:50.927Z,1.30
2024-01-26T01:48:21.295Z,1.23
2024-01-26T01:50:54.485Z,1.40
2024-01-26T01:53:24.915Z,1.27
2024-01-26T01:55:57.329Z,1.40
2024-01-26T01:58:28.532Z,1.27
2024-01-26T02:00:58.814Z,1.40
2024-01-26T02:03:28.750Z,1.45
2024-01-26T02:06:01.441Z,1.75
2024-01-26T02:08:31.597Z,1.52
2024-01-26T02:11:01.580Z,1.50
2024-01-26T02:13:31.492Z,1.30
2024-01-26T02:16:01.416Z,1.60
2024-01-26T02:21:09.632Z,1.55
2024-01-26T02:23:43.703Z,1.70
2024-01-26T02:26:13.744Z,1.40
2024-01-26T02:28:43.665Z,1.33
2024-01-26T02:31:13.621Z,1.70
2024-01-26T02:33:43.809Z,1.60
2024-01-26T02:36:14.188Z,1.50
2024-01-26T02:38:46.783Z,1.42
2024-01-26T02:41:16.917Z,1.50
2024-01-26T02:43:46.999Z,1.40
2024-01-26T02:46:17.057Z,1.20
2024-01-26T02:48:47.476Z,1.40
2024-01-26T02:51:17.524Z,1.20
2024-01-26T02:53:50.146Z,2.35
2024-01-26T02:56:20.202Z,1.33
2024-01-26T02:58:51.658Z,1.60
2024-01-26T03:01:21.916Z,1.65
2024-01-26T03:03:51.915Z,1.88
2024-01-26T03:06:22.020Z,2.17
2024-01-26T03:08:54.800Z,1.50
2024-01-26T03:11:25.626Z,2.45
2024-01-26T03:13:55.616Z,2.17
2024-01-26T03:16:25.585Z,1.77
2024-01-26T03:18:55.729Z,1.85
2024-01-26T03:21:25.802Z,1.80
2024-01-26T03:23:58.339Z,1.67
2024-01-26T03:26:28.446Z,1.80
2024-01-26T03:28:58.361Z,4.00
2024-01-26T03:31:28.342Z,9.52
2024-01-26T03:33:58.531Z,10.63
2024-01-26T03:36:28.673Z,7.63
2024-01-26T03:39:01.359Z,4.78
2024-01-26T03:41:34.386Z,2.55
2024-01-26T03:44:04.390Z,1.73
2024-01-26T03:46:34.442Z,1.70
2024-01-26T03:49:05.545Z,1.00
2024-01-26T03:51:35.572Z,1.05
2024-01-26T03:54:08.519Z,1.17
2024-01-26T03:56:38.718Z,1.10
2024-01-26T03:59:08.652Z,1.00
2024-01-26T04:01:38.742Z,0.77
2024-01-26T04:04:08.913Z,1.00
2024-01-26T04:06:42.957Z,0.88
2024-01-26T04:09:15.706Z,0.95
2024-01-26T04:11:45.725Z,0.80
2024-01-26T04:14:17.106Z,0.80
2024-01-26T04:16:48.345Z,0.65
2024-01-26T04:19:18.688Z,0.70
2024-01-26T04:21:51.201Z,0.90
2024-01-26T04:24:23.885Z,1.00
2024-01-26T04:26:54.042Z,0.70
2024-01-26T04:29:24.011Z,0.65
2024-01-26T04:31:54.041Z,0.73
2024-01-26T04:34:24.110Z,0.73
2024-01-26T04:36:54.258Z,0.90
2024-01-26T04:39:26.829Z,0.93
2024-01-26T04:41:56.860Z,0.98
2024-01-26T04:44:26.820Z,0.80
2024-01-26T04:46:58.791Z,0.90
2024-01-26T04:49:28.866Z,1.35
2024-01-26T04:51:58.890Z,0.95
2024-01-26T04:54:31.468Z,1.00
2024-01-26T04:57:01.485Z,1.13
2024-01-26T04:59:31.478Z,1.10
2024-01-26T05:02:02.476Z,1.30
2024-01-26T05:04:32.435Z,1.40
2024-01-26T05:07:02.487Z,1.50
2024-01-26T05:09:35.055Z,1.38
2024-01-26T05:12:05.056Z,1.42
2024-01-26T05:14:37.594Z,1.42
2024-01-26T05:17:07.943Z,1.70
2024-01-26T05:19:37.913Z,1.90
2024-01-26T05:22:08.045Z,1.15
2024-01-26T05:24:40.678Z,1.17
2024-01-26T05:27:10.787Z,1.42
2024-01-26T05:29:41.035Z,1.60
2024-01-26T05:32:11.317Z,1.20
2024-01-26T05:34:41.453Z,1.27
2024-01-26T05:37:11.417Z,1.08
2024-01-26T05:39:44.684Z,1.25
2024-01-26T05:42:14.700Z,1.30
2024-01-26T05:44:44.646Z,1.10
2024-01-26T05:47:14.594Z,0.90
2024-01-26T05:49:45.540Z,1.00
2024-01-26T05:52:15.561Z,0.77
2024-01-26T05:54:48.048Z,1.10
2024-01-26T05:57:18.028Z,0.98
2024-01-26T05:59:48.221Z,1.10
2024-01-26T06:02:18.553Z,1.50
2024-01-26T06:04:48.515Z,1.17
2024-01-26T06:07:18.444Z,1.25
2024-01-26T06:09:51.245Z,1.33
2024-01-26T06:12:21.739Z,1.05
2024-01-26T06:14:51.802Z,1.02
2024-01-26T06:17:21.985Z,1.40
2024-01-26T06:19:52.122Z,1.30
2024-01-26T06:22:22.106Z,1.10
2024-01-26T06:24:55.175Z,1.10
2024-01-26T06:27:25.212Z,1.58
2024-01-26T06:29:56.041Z,1.75
2024-01-26T06:32:26.085Z,1.00
2024-01-26T06:34:56.328Z,1.40
2024-01-26T06:37:28.117Z,1.30
2024-01-26T06:40:00.627Z,1.40
2024-01-26T06:42:33.612Z,1.60
2024-01-26T06:45:04.707Z,1.48
2024-01-26T06:47:34.883Z,1.63
2024-01-26T06:50:05.393Z,1.50
2024-01-26T06:52:35.729Z,1.30
2024-01-26T06:55:08.771Z,1.48
2024-01-26T06:57:38.826Z,1.60
2024-01-26T07:00:11.942Z,1.55
2024-01-26T07:02:42.846Z,1.50
2024-01-26T07:05:12.825Z,1.30
2024-01-26T07:07:42.856Z,1.58
2024-01-26T07:10:15.828Z,1.50
2024-01-26T07:12:45.784Z,1.60
2024-01-26T07:15:15.907Z,1.40
2024-01-26T07:17:46.057Z,1.40
2024-01-26T07:20:16.227Z,1.13
2024-01-26T07:22:46.660Z,1.00
2024-01-26T07:25:20.458Z,1.13
2024-01-26T07:27:50.739Z,1.45
2024-01-26T07:30:21.104Z,1.15
2024-01-26T07:32:51.207Z,1.50
2024-01-26T07:35:21.202Z,1.00
2024-01-26T07:37:51.128Z,1.10
2024-01-26T07:40:23.662Z,1.00
2024-01-26T07:42:53.684Z,1.00
2024-01-26T07:45:23.698Z,1.00
2024-01-26T07:47:53.866Z,1.00
2024-01-26T07:50:23.922Z,0.90
2024-01-26T07:52:53.858Z,0.90
2024-01-26T07:55:26.372Z,1.02
2024-01-26T07:57:56.351Z,0.90
2024-01-26T08:00:26.729Z,1.20
2024-01-26T08:02:57.933Z,1.00
2024-01-26T08:05:28.067Z,0.90
2024-01-26T08:07:58.226Z,1.30
2024-01-26T08:10:31.032Z,1.00
2024-01-26T08:13:01.337Z,1.20
2024-01-26T08:15:31.482Z,1.10
2024-01-26T08:18:01.594Z,1.10
2024-01-26T08:20:32.053Z,1.10
2024-01-26T08:23:02.337Z,1.08
2024-01-26T08:25:34.941Z,0.82
2024-01-26T08:28:05.701Z,1.00
2024-01-26T08:30:35.673Z,1.00
2024-01-26T08:33:06.491Z,0.80
2024-01-26T08:35:37.083Z,1.00
2024-01-26T08:38:07.835Z,1.38
2024-01-26T08:40:40.477Z,1.40
2024-01-26T08:43:10.488Z,1.00
2024-01-26T08:45:40.409Z,1.00
2024-01-26T08:48:10.930Z,0.98
2024-01-26T08:50:41.401Z,1.10
2024-01-26T08:53:11.920Z,0.90
2024-01-26T08:55:44.388Z,1.08
2024-01-26T08:58:14.385Z,1.25
2024-01-26T09:00:44.439Z,0.93
2024-01-26T09:03:15.908Z,1.25
2024-01-26T09:05:46.108Z,1.83
2024-01-26T09:08:16.152Z,2.78
2024-01-26T09:10:48.792Z,1.63
2024-01-26T09:13:19.510Z,1.27
2024-01-26T09:15:49.599Z,1.23
2024-01-26T09:18:20.862Z,1.23
2024-01-26T09:20:51.703Z,1.30
2024-01-26T09:23:21.922Z,1.23
2024-01-26T09:25:51.977Z,1.50
2024-01-26T09:28:21.984Z,1.40
2024-01-26T09:30:51.936Z,1.25
2024-01-26T09:33:22.128Z,1.70
2024-01-26T09:35:52.471Z,1.40
2024-01-26T09:38:22.470Z,1.38
2024-01-26T09:40:55.521Z,1.55
2024-01-26T09:43:25.587Z,1.30
2024-01-26T09:45:56.244Z,1.10
2024-01-26T09:48:27.779Z,1.63
2024-01-26T09:50:58.082Z,1.10
2024-01-26T09:53:28.325Z,0.80
2024-01-26T09:56:02.208Z,1.10
2024-01-26T09:58:33.055Z,1.10
2024-01-26T10:01:03.295Z,1.27
2024-01-26T10:03:35.052Z,1.20
2024-01-26T10:06:06.341Z,1.48
2024-01-26T10:08:41.839Z,1.00
2024-01-26T10:11:14.813Z,1.15
2024-01-26T10:13:45.146Z,1.27
2024-01-26T10:16:16.487Z,1.10
2024-01-26T10:18:49.226Z,1.05
2024-01-26T10:21:21.645Z,1.03
2024-01-26T10:23:52.274Z,1.45
2024-01-26T10:26:25.762Z,1.20
2024-01-26T10:28:57.915Z,1.13
2024-01-26T10:31:29.078Z,1.38
2024-01-26T10:34:00.437Z,1.20
2024-01-26T10:36:32.100Z,1.10
2024-01-26T10:39:04.289Z,0.85
2024-01-26T10:41:40.797Z,1.17
2024-01-26T10:44:11.966Z,1.15
2024-01-26T10:46:42.638Z,1.88
2024-01-26T10:49:15.442Z,1.15
2024-01-26T10:51:46.023Z,1.10
2024-01-26T10:54:18.711Z,1.77
2024-01-26T10:56:51.279Z,1.38
2024-01-26T10:59:21.736Z,1.13
2024-01-26T11:01:52.198Z,1.05
2024-01-26T11:04:22.516Z,1.25
2024-01-26T11:06:52.638Z,1.45
2024-01-26T11:09:23.671Z,0.90
2024-01-26T11:11:57.146Z,1.63
2024-01-26T11:14:31.446Z,6.13
2024-01-26T11:17:12.346Z,1.08
2024-01-26T11:19:42.493Z,1.15
2024-01-26T11:22:12.473Z,0.95
2024-01-26T11:24:46.494Z,1.00
2024-01-26T11:27:19.072Z,1.30
2024-01-26T11:29:49.112Z,1.00
2024-01-26T11:32:21.834Z,0.82
2024-01-26T11:35:04.412Z,1.45
2024-01-26T11:37:35.353Z,1.00
2024-01-26T11:40:06.896Z,1.00
2024-01-26T11:42:40.244Z,1.00
2024-01-26T11:45:12.872Z,1.00
2024-01-26T11:47:44.248Z,0.90
2024-01-26T11:50:15.823Z,1.20
2024-01-26T11:52:47.067Z,1.08
2024-01-26T11:55:17.465Z,1.10
2024-01-26T11:57:50.404Z,1.98
2024-01-26T12:00:21.124Z,1.10
2024-01-26T12:02:51.517Z,1.30
2024-01-26T12:05:21.908Z,1.20
2024-01-26T12:07:53.036Z,1.20
2024-01-26T12:10:24.370Z,1.20
2024-01-26T12:12:57.213Z,1.10
2024-01-26T12:15:32.224Z,1.15
2024-01-26T12:18:03.142Z,1.45
2024-01-26T12:20:33.163Z,1.92
2024-01-26T12:23:03.146Z,1.05
2024-01-26T12:25:33.250Z,1.30
2024-01-26T12:28:06.652Z,1.15
2024-01-26T12:30:37.067Z,1.37
2024-01-26T12:33:10.902Z,1.65
2024-01-26T12:35:42.176Z,1.08
2024-01-26T12:38:12.500Z,1.17
2024-01-26T12:40:39.902Z,1.20
2024-01-26T12:43:13.317Z,1.35
2024-01-26T12:45:43.392Z,0.90
2024-01-26T12:48:13.415Z,0.77
2024-01-26T12:50:43.556Z,1.08
2024-01-26T12:53:13.549Z,0.70
2024-01-26T12:55:43.539Z,0.68
2024-01-26T12:58:18.474Z,0.90
2024-01-26T13:00:49.874Z,1.00
2024-01-26T13:03:20.322Z,0.75
2024-01-26T13:05:52.921Z,0.85
2024-01-26T13:08:23.282Z,0.77
2024-01-26T13:10:53.321Z,3.45
2024-01-26T13:13:26.764Z,1.30
2024-01-26T13:15:56.756Z,1.10
2024-01-26T13:18:29.889Z,1.00
2024-01-26T13:21:02.916Z,0.80
2024-01-26T13:23:33.024Z,0.90
2024-01-26T13:26:03.808Z,0.57
2024-01-26T13:28:38.795Z,0.60
2024-01-26T13:31:09.024Z,0.70
2024-01-26T13:33:39.299Z,1.02
2024-01-26T13:36:09.933Z,0.77
2024-01-26T13:38:39.907Z,0.60
2024-01-26T13:41:09.959Z,0.50
2024-01-26T13:43:42.638Z,0.90
2024-01-26T13:46:12.653Z,0.60
2024-01-26T13:48:42.754Z,0.73
2024-01-26T13:51:12.814Z,0.55
2024-01-26T13:53:42.848Z,0.50
2024-01-26T13:56:13.190Z,0.70
2024-01-26T13:58:45.768Z,0.50
2024-01-26T14:01:17.639Z,0.80
2024-01-26T14:03:49.865Z,1.00
2024-01-26T14:06:20.213Z,0.40
2024-01-26T14:08:51.232Z,0.40
2024-01-26T14:11:21.636Z,0.50
2024-01-26T14:13:54.137Z,0.50
2024-01-26T14:16:24.181Z,0.50
2024-01-26T14:18:54.308Z,0.77
2024-01-26T14:21:24.305Z,0.50
2024-01-26T14:23:54.306Z,0.30
2024-01-26T14:26:28.353Z,0.50
2024-01-26T14:29:01.320Z,0.40
2024-01-26T14:31:35.137Z,0.30
2024-01-26T14:34:06.678Z,0.73
2024-01-26T14:36:36.982Z,0.70
2024-01-26T14:39:09.937Z,1.15
2024-01-26T14:41:40.107Z,0.50
2024-01-26T14:44:12.740Z,0.30
2024-01-26T14:46:42.726Z,0.60
2024-01-26T14:49:13.257Z,0.30
2024-01-26T14:51:44.983Z,0.50
2024-01-26T14:54:15.120Z,0.45
2024-01-26T14:56:46.044Z,0.30
2024-01-26T14:59:18.754Z,0.22
2024-01-26T15:01:49.225Z,0.30
2024-01-26T15:04:19.670Z,0.30
2024-01-26T15:06:50.789Z,0.30
2024-01-26T15:09:21.113Z,0.20
2024-01-26T15:11:51.364Z,1.08
2024-01-26T15:14:24.272Z,0.30
2024-01-26T15:16:54.317Z,0.30
2024-01-26T15:19:24.465Z,0.30
2024-01-26T15:21:57.666Z,0.35
2024-01-26T15:24:27.684Z,0.40
2024-01-26T15:26:57.655Z,0.40
2024-01-26T15:29:30.909Z,0.20
2024-01-26T15:32:00.935Z,0.30
2024-01-26T15:34:30.937Z,0.47
2024-01-26T15:37:00.905Z,0.40
2024-01-26T15:39:31.528Z,0.35
2024-01-26T15:42:02.728Z,0.30
2024-01-26T15:44:35.273Z,0.52
2024-01-26T15:47:05.601Z,0.38
2024-01-26T15:49:36.055Z,0.47
2024-01-26T15:52:07.116Z,0.40
2024-01-26T15:54:37.071Z,0.60
2024-01-26T15:57:08.954Z,0.85
2024-01-26T15:59:42.371Z,0.63
2024-01-26T16:02:13.179Z,0.70
2024-01-26T16:04:43.472Z,0.60
2024-01-26T16:07:13.653Z,0.60
2024-01-26T16:09:43.637Z,0.63
2024-01-26T16:12:14.249Z,0.50
2024-01-26T16:14:47.131Z,0.80
2024-01-26T16:17:19.295Z,0.80
2024-01-26T16:19:49.769Z,0.73
2024-01-26T16:22:19.788Z,1.00
2024-01-26T16:24:49.915Z,0.80
2024-01-26T16:27:20.158Z,1.00
2024-01-26T16:29:52.822Z,1.02
2024-01-26T16:32:23.629Z,0.80
2024-01-26T16:34:53.665Z,0.82
2024-01-26T16:37:23.625Z,0.88
2024-01-26T16:39:53.734Z,1.20
2024-01-26T16:42:26.232Z,1.20
2024-01-26T16:44:58.952Z,1.00
2024-01-26T16:47:28.904Z,1.00
2024-01-26T16:49:58.943Z,1.30
2024-01-26T16:52:29.274Z,1.00
2024-01-26T16:54:59.717Z,1.02
2024-01-26T16:57:29.975Z,1.60
2024-01-26T17:00:02.898Z,1.45
2024-01-26T17:02:33.059Z,1.85
2024-01-26T17:05:04.131Z,1.50
2024-01-26T17:07:35.193Z,1.20
2024-01-26T17:10:05.254Z,1.10
2024-01-26T17:12:35.248Z,0.98
2024-01-26T17:15:09.389Z,1.17
2024-01-26T17:17:40.431Z,0.90
2024-01-26T17:20:12.051Z,1.17
2024-01-26T17:22:42.087Z,1.05
2024-01-26T17:25:12.761Z,1.10
2024-01-26T17:27:42.971Z,0.90
2024-01-26T17:30:16.291Z,1.35
2024-01-26T17:32:46.664Z,1.25
2024-01-26T17:35:16.842Z,1.13
2024-01-26T17:37:46.840Z,1.42
2024-01-26T17:40:17.040Z,1.35
2024-01-26T17:42:47.001Z,1.60
2024-01-26T17:45:19.747Z,1.30
2024-01-26T17:47:52.653Z,1.08
2024-01-26T17:50:24.074Z,1.52
2024-01-26T17:52:54.028Z,1.30
2024-01-26T17:55:23.976Z,1.50
2024-01-26T17:57:53.946Z,1.10
2024-01-26T18:00:26.628Z,1.90
2024-01-26T18:02:57.054Z,1.13
2024-01-26T18:05:28.664Z,1.35
2024-01-26T18:07:59.145Z,1.33
2024-01-26T18:10:30.041Z,1.52
2024-01-26T18:13:00.161Z,1.73
2024-01-26T18:15:32.786Z,1.88
2024-01-26T18:18:03.322Z,2.50
2024-01-26T18:20:33.440Z,1.80
2024-01-26T18:23:03.984Z,2.17
2024-01-26T18:25:33.927Z,2.25
2024-01-26T18:28:04.013Z,2.08
2024-01-26T18:30:36.625Z,1.38
2024-01-26T18:33:07.099Z,1.45
2024-01-26T18:35:37.109Z,1.35
2024-01-26T18:38:07.609Z,1.38
2024-01-26T18:40:37.707Z,1.45
2024-01-26T18:43:08.047Z,1.60
2024-01-26T18:45:40.598Z,1.60
2024-01-26T18:48:11.041Z,1.95
2024-01-26T18:50:41.143Z,1.88
2024-01-26T18:53:11.136Z,1.67
2024-01-26T18:55:41.091Z,1.67
2024-01-26T18:58:11.169Z,2.00
2024-01-26T19:00:44.107Z,2.03
2024-01-26T19:03:14.462Z,2.47
2024-01-26T19:05:45.253Z,2.70
2024-01-26T19:08:15.502Z,2.17
2024-01-26T19:10:45.660Z,2.95
2024-01-26T19:13:16.208Z,2.78
2024-01-26T19:15:49.618Z,2.33
2024-01-26T19:18:21.120Z,2.10
2024-01-26T19:20:51.331Z,1.92
2024-01-26T19:23:21.437Z,1.90
2024-01-26T19:25:52.554Z,1.80
2024-01-26T19:28:22.653Z,1.55
2024-01-26T19:30:55.224Z,1.88
2024-01-26T19:33:25.335Z,2.00
2024-01-26T19:35:55.723Z,1.65
2024-01-26T19:38:25.717Z,1.90
2024-01-26T19:40:55.892Z,2.38
2024-01-26T19:43:25.862Z,2.17
2024-01-26T19:45:58.414Z,2.13
2024-01-26T19:48:28.494Z,2.30
2024-01-26T19:50:58.609Z,1.75
2024-01-26T19:53:29.693Z,2.00
2024-01-26T19:55:59.656Z,1.70
2024-01-26T19:58:29.617Z,1.73
2024-01-26T20:01:02.196Z,1.88
2024-01-26T20:03:32.626Z,1.83
2024-01-26T20:06:02.985Z,2.03
2024-01-26T20:08:34.932Z,1.58
2024-01-26T20:11:05.559Z,1.55
2024-01-26T20:13:35.524Z,1.65
2024-01-26T20:16:10.416Z,1.98
2024-01-26T20:18:40.746Z,1.92
2024-01-26T20:21:11.222Z,1.80
2024-01-26T20:23:42.316Z,1.98
2024-01-26T20:26:13.755Z,2.58
2024-01-26T20:28:44.621Z,2.13
2024-01-26T20:31:19.209Z,2.17
2024-01-26T20:33:49.465Z,2.10
2024-01-26T20:36:19.703Z,2.65
2024-01-26T20:38:51.197Z,2.40
2024-01-26T20:41:21.251Z,2.55
2024-01-26T20:43:51.302Z,1.98
2024-01-26T20:46:23.815Z,2.42
2024-01-26T20:48:53.890Z,2.50
2024-01-26T20:51:24.089Z,2.58
2024-01-26T20:53:54.484Z,3.45
2024-01-26T20:56:25.262Z,3.53
2024-01-26T20:58:55.753Z,3.00
2024-01-26T21:01:28.420Z,2.80
2024-01-26T21:03:58.886Z,2.92
2024-01-26T21:06:29.088Z,3.88
2024-01-26T21:08:59.507Z,3.22
2024-01-26T21:11:30.237Z,2.80
2024-01-26T21:14:00.780Z,2.90
2024-01-26T21:16:33.317Z,3.10
2024-01-26T21:19:03.474Z,3.50
2024-01-26T21:21:33.952Z,3.40
2024-01-26T21:24:07.767Z,4.00
2024-01-26T21:26:39.740Z,3.53
2024-01-26T21:29:09.751Z,3.55
2024-01-26T21:31:42.355Z,3.20
2024-01-26T21:34:12.585Z,3.60
2024-01-26T21:36:42.728Z,3.70
2024-01-26T21:39:13.279Z,3.22
2024-01-26T21:41:43.394Z,3.17
2024-01-26T21:44:13.484Z,3.45
2024-01-26T21:46:46.283Z,3.28
2024-01-26T21:49:17.717Z,3.85
2024-01-26T21:51:55.358Z,3.25
2024-01-26T21:54:28.227Z,3.78
2024-01-26T21:56:58.532Z,3.80
2024-01-26T21:59:28.539Z,3.05
2024-01-26T22:02:01.188Z,2.97
2024-01-26T22:04:31.233Z,2.85
2024-01-26T22:07:01.252Z,2.88
2024-01-26T22:09:31.644Z,2.85
2024-01-26T22:12:01.686Z,2.47
2024-01-26T22:14:31.712Z,2.50
2024-01-26T22:17:04.280Z,2.75
2024-01-26T22:19:34.363Z,2.42
2024-01-26T22:22:04.524Z,3.00
2024-01-26T22:24:34.618Z,3.10
2024-01-26T22:27:04.609Z,3.38
2024-01-26T22:29:34.585Z,3.72
2024-01-26T22:32:07.777Z,3.00
2024-01-26T22:34:37.882Z,2.80
2024-01-26T22:37:08.206Z,2.22
2024-01-26T22:39:38.188Z,2.40
2024-01-26T22:42:08.746Z,2.42
2024-01-26T22:44:38.719Z,2.47
2024-01-26T22:47:11.833Z,2.63
2024-01-26T22:49:43.758Z,2.90
2024-01-26T22:52:13.892Z,2.80
2024-01-26T22:54:44.303Z,2.65
2024-01-26T22:57:14.427Z,3.38
2024-01-26T22:59:44.440Z,2.70
2024-01-26T23:02:17.001Z,3.03
2024-01-26T23:04:46.976Z,3.20
2024-01-26T23:07:17.029Z,3.03
2024-01-26T23:09:47.231Z,2.30
2024-01-26T23:12:17.237Z,2.80
2024-01-26T23:14:48.521Z,3.33
2024-01-26T23:17:21.091Z,3.05
2024-01-26T23:19:51.220Z,2.92
2024-01-26T23:22:21.571Z,3.38
2024-01-26T23:24:56.885Z,3.55
2024-01-26T23:27:27.796Z,3.30
2024-01-26T23:29:57.951Z,2.80
2024-01-26T23:32:30.872Z,3.00
2024-01-26T23:35:04.349Z,3.22
2024-01-26T23:37:34.727Z,2.70
2024-01-26T23:40:04.849Z,2.60
2024-01-26T23:42:34.820Z,3.17
2024-01-26T23:45:04.793Z,3.20
2024-01-26T23:47:37.793Z,2.75
2024-01-26T23:50:08.621Z,2.75
2024-01-26T23:52:38.706Z,2.65
2024-01-26T23:55:09.220Z,3.03
2024-01-26T23:57:39.197Z,2.78
